sensor_id;sensor_type;location;lat;lon;timestamp;temperature;humidity
54642;DHT22;40536;53.194;5.728;2023-04-03T00:01:10;3.10;99.90
54642;DHT22;40536;53.194;5.728;2023-04-03T00:03:36;3.10;99.90
54642;DHT22;40536;53.194;5.728;2023-04-03T00:06:03;3.00;99.90
54642;DHT22;40536;53.194;5.728;2023-04-03T00:08:29;3.00;99.90
54642;DHT22;40536;53.194;5.728;2023-04-03T00:10:56;2.90;99.90
54642;DHT22;40536;53.194;5.728;2023-04-03T00:13:23;2.90;99.90
54642;DHT22;40536;53.194;5.728;2023-04-03T00:15:49;3.60;99.90
54642;DHT22;40536;53.194;5.728;2023-04-03T00:18:15;2.80;99.90
54642;DHT22;40536;53.194;5.728;2023-04-03T00:20:41;2.70;99.90
54642;DHT22;40536;53.194;5.728;2023-04-03T00:23:06;2.70;99.90
54642;DHT22;40536;53.194;5.728;2023-04-03T00:25:32;2.60;99.90
54642;DHT22;40536;53.194;5.728;2023-04-03T00:27:58;2.60;99.90
54642;DHT22;40536;53.194;5.728;2023-04-03T00:30:25;2.50;99.90
54642;DHT22;40536;53.194;5.728;2023-04-03T00:32:51;2.50;99.90
54642;DHT22;40536;53.194;5.728;2023-04-03T00:35:18;2.70;99.90
54642;DHT22;40536;53.194;5.728;2023-04-03T00:37:47;2.70;99.90
54642;DHT22;40536;53.194;5.728;2023-04-03T00:40:14;2.50;99.90
54642;DHT22;40536;53.194;5.728;2023-04-03T00:42:41;2.50;99.90
54642;DHT22;40536;53.194;5.728;2023-04-03T00:47:36;2.50;99.90
54642;DHT22;40536;53.194;5.728;2023-04-03T00:50:03;2.70;99.90
54642;DHT22;40536;53.194;5.728;2023-04-03T00:52:30;2.50;99.90
54642;DHT22;40536;53.194;5.728;2023-04-03T00:55:00;3.00;99.90
54642;DHT22;40536;53.194;5.728;2023-04-03T00:57:27;2.40;99.90
54642;DHT22;40536;53.194;5.728;2023-04-03T00:59:59;2.30;99.90
54642;DHT22;40536;53.194;5.728;2023-04-03T01:02:27;2.30;99.90
54642;DHT22;40536;53.194;5.728;2023-04-03T01:04:52;2.30;99.90
54642;DHT22;40536;53.194;5.728;2023-04-03T01:07:22;2.20;99.90
54642;DHT22;40536;53.194;5.728;2023-04-03T01:09:51;2.30;99.90
54642;DHT22;40536;53.194;5.728;2023-04-03T01:12:21;2.20;99.90
54642;DHT22;40536;53.194;5.728;2023-04-03T01:14:50;2.30;99.90
54642;DHT22;40536;53.194;5.728;2023-04-03T01:17:53;2.30;99.90
54642;DHT22;40536;53.194;5.728;2023-04-03T01:25:34;2.20;99.90
54642;DHT22;40536;53.194;5.728;2023-04-03T01:28:02;2.10;99.90
54642;DHT22;40536;53.194;5.728;2023-04-03T01:30:32;2.10;99.90
54642;DHT22;40536;53.194;5.728;2023-04-03T01:32:59;3.10;99.90
54642;DHT22;40536;53.194;5.728;2023-04-03T01:35:25;2.10;99.90
54642;DHT22;40536;53.194;5.728;2023-04-03T01:37:50;2.10;99.90
54642;DHT22;40536;53.194;5.728;2023-04-03T01:40:16;2.10;99.90
54642;DHT22;40536;53.194;5.728;2023-04-03T01:42:42;2.00;99.90
54642;DHT22;40536;53.194;5.728;2023-04-03T01:45:08;2.00;99.90
54642;DHT22;40536;53.194;5.728;2023-04-03T01:47:34;2.00;99.90
54642;DHT22;40536;53.194;5.728;2023-04-03T01:49:59;2.00;99.90
54642;DHT22;40536;53.194;5.728;2023-04-03T01:52:25;2.00;99.90
54642;DHT22;40536;53.194;5.728;2023-04-03T01:54:51;2.00;99.90
54642;DHT22;40536;53.194;5.728;2023-04-03T01:57:17;2.00;99.90
54642;DHT22;40536;53.194;5.728;2023-04-03T01:59:42;2.00;99.90
54642;DHT22;40536;53.194;5.728;2023-04-03T02:02:08;3.00;99.90
54642;DHT22;40536;53.194;5.728;2023-04-03T02:04:34;2.00;99.90
54642;DHT22;40536;53.194;5.728;2023-04-03T02:07:00;2.00;99.90
54642;DHT22;40536;53.194;5.728;2023-04-03T02:09:25;2.00;99.90
54642;DHT22;40536;53.194;5.728;2023-04-03T02:11:52;1.90;99.90
54642;DHT22;40536;53.194;5.728;2023-04-03T02:14:18;1.90;99.90
54642;DHT22;40536;53.194;5.728;2023-04-03T02:16:44;1.90;99.90
54642;DHT22;40536;53.194;5.728;2023-04-03T02:19:09;1.90;99.90
54642;DHT22;40536;53.194;5.728;2023-04-03T02:21:35;1.90;99.90
54642;DHT22;40536;53.194;5.728;2023-04-03T02:24:01;1.90;99.90
54642;DHT22;40536;53.194;5.728;2023-04-03T02:26:26;1.90;99.90
54642;DHT22;40536;53.194;5.728;2023-04-03T02:28:52;1.90;99.90
54642;DHT22;40536;53.194;5.728;2023-04-03T02:31:18;1.80;99.90
54642;DHT22;40536;53.194;5.728;2023-04-03T02:33:43;1.80;99.90
54642;DHT22;40536;53.194;5.728;2023-04-03T02:36:09;1.70;99.90
54642;DHT22;40536;53.194;5.728;2023-04-03T02:38:35;2.10;99.90
54642;DHT22;40536;53.194;5.728;2023-04-03T02:41:03;1.70;99.90
54642;DHT22;40536;53.194;5.728;2023-04-03T02:43:29;1.60;99.90
54642;DHT22;40536;53.194;5.728;2023-04-03T02:45:54;1.60;99.90
54642;DHT22;40536;53.194;5.728;2023-04-03T02:48:21;1.60;99.90
54642;DHT22;40536;53.194;5.728;2023-04-03T02:50:47;1.60;99.90
54642;DHT22;40536;53.194;5.728;2023-04-03T02:53:12;1.50;99.90
54642;DHT22;40536;53.194;5.728;2023-04-03T02:55:38;1.50;99.90
54642;DHT22;40536;53.194;5.728;2023-04-03T02:58:04;1.60;99.90
54642;DHT22;40536;53.194;5.728;2023-04-03T03:00:30;1.60;99.90
54642;DHT22;40536;53.194;5.728;2023-04-03T03:02:56;1.50;99.90
54642;DHT22;40536;53.194;5.728;2023-04-03T03:05:21;1.50;99.90
54642;DHT22;40536;53.194;5.728;2023-04-03T03:07:47;1.50;99.90
54642;DHT22;40536;53.194;5.728;2023-04-03T03:10:13;1.50;99.90
54642;DHT22;40536;53.194;5.728;2023-04-03T03:12:39;1.50;99.90
54642;DHT22;40536;53.194;5.728;2023-04-03T03:15:06;1.50;99.90
54642;DHT22;40536;53.194;5.728;2023-04-03T03:17:32;1.50;99.90
54642;DHT22;40536;53.194;5.728;2023-04-03T03:19:58;1.50;99.90
54642;DHT22;40536;53.194;5.728;2023-04-03T03:22:25;1.50;99.90
54642;DHT22;40536;53.194;5.728;2023-04-03T03:24:51;1.40;99.90
54642;DHT22;40536;53.194;5.728;2023-04-03T03:27:17;1.50;99.90
54642;DHT22;40536;53.194;5.728;2023-04-03T03:29:42;2.30;99.90
54642;DHT22;40536;53.194;5.728;2023-04-03T03:32:08;1.40;99.90
54642;DHT22;40536;53.194;5.728;2023-04-03T03:34:35;1.30;99.90
54642;DHT22;40536;53.194;5.728;2023-04-03T03:37:01;2.00;99.90
54642;DHT22;40536;53.194;5.728;2023-04-03T03:39:27;1.30;99.90
54642;DHT22;40536;53.194;5.728;2023-04-03T03:41:52;1.30;99.90
54642;DHT22;40536;53.194;5.728;2023-04-03T03:44:19;2.30;99.90
54642;DHT22;40536;53.194;5.728;2023-04-03T03:46:45;1.20;99.90
54642;DHT22;40536;53.194;5.728;2023-04-03T03:49:11;1.20;99.90
54642;DHT22;40536;53.194;5.728;2023-04-03T03:51:37;1.10;99.90
54642;DHT22;40536;53.194;5.728;2023-04-03T03:54:04;1.10;99.90
54642;DHT22;40536;53.194;5.728;2023-04-03T03:56:30;1.00;99.90
54642;DHT22;40536;53.194;5.728;2023-04-03T03:58:55;1.00;99.90
54642;DHT22;40536;53.194;5.728;2023-04-03T04:01:25;1.20;99.90
54642;DHT22;40536;53.194;5.728;2023-04-03T04:03:51;0.90;99.90
54642;DHT22;40536;53.194;5.728;2023-04-03T04:06:17;0.90;99.90
54642;DHT22;40536;53.194;5.728;2023-04-03T04:08:42;0.90;99.90
54642;DHT22;40536;53.194;5.728;2023-04-03T04:11:09;0.80;99.90
54642;DHT22;40536;53.194;5.728;2023-04-03T04:13:34;0.80;99.90
54642;DHT22;40536;53.194;5.728;2023-04-03T04:16:00;0.80;99.90
54642;DHT22;40536;53.194;5.728;2023-04-03T04:18:26;0.70;99.90
54642;DHT22;40536;53.194;5.728;2023-04-03T04:20:52;0.70;99.90
54642;DHT22;40536;53.194;5.728;2023-04-03T04:23:18;0.70;99.90
54642;DHT22;40536;53.194;5.728;2023-04-03T04:25:48;0.70;99.90
54642;DHT22;40536;53.194;5.728;2023-04-03T04:28:14;0.60;99.90
54642;DHT22;40536;53.194;5.728;2023-04-03T04:30:40;0.60;99.90
54642;DHT22;40536;53.194;5.728;2023-04-03T04:33:06;0.60;99.90
54642;DHT22;40536;53.194;5.728;2023-04-03T04:35:32;1.60;99.90
54642;DHT22;40536;53.194;5.728;2023-04-03T04:37:58;1.20;99.90
54642;DHT22;40536;53.194;5.728;2023-04-03T04:40:24;0.80;99.90
54642;DHT22;40536;53.194;5.728;2023-04-03T04:42:49;0.60;99.90
54642;DHT22;40536;53.194;5.728;2023-04-03T04:45:15;0.60;99.90
54642;DHT22;40536;53.194;5.728;2023-04-03T04:47:41;0.60;99.90
54642;DHT22;40536;53.194;5.728;2023-04-03T04:50:08;0.50;99.90
54642;DHT22;40536;53.194;5.728;2023-04-03T04:52:33;0.50;99.90
54642;DHT22;40536;53.194;5.728;2023-04-03T04:54:59;0.50;99.90
54642;DHT22;40536;53.194;5.728;2023-04-03T04:57:25;0.40;99.90
54642;DHT22;40536;53.194;5.728;2023-04-03T04:59:51;0.40;99.90
54642;DHT22;40536;53.194;5.728;2023-04-03T05:02:17;0.40;99.90
54642;DHT22;40536;53.194;5.728;2023-04-03T05:04:43;0.40;99.90
54642;DHT22;40536;53.194;5.728;2023-04-03T05:07:08;0.40;99.90
54642;DHT22;40536;53.194;5.728;2023-04-03T05:09:34;0.40;99.90
54642;DHT22;40536;53.194;5.728;2023-04-03T05:12:00;0.60;99.90
54642;DHT22;40536;53.194;5.728;2023-04-03T05:14:25;0.50;99.90
54642;DHT22;40536;53.194;5.728;2023-04-03T05:16:51;0.50;99.90
54642;DHT22;40536;53.194;5.728;2023-04-03T05:19:20;0.50;99.90
54642;DHT22;40536;53.194;5.728;2023-04-03T05:21:46;0.50;99.90
54642;DHT22;40536;53.194;5.728;2023-04-03T05:24:13;0.50;99.90
54642;DHT22;40536;53.194;5.728;2023-04-03T05:26:39;0.50;99.90
54642;DHT22;40536;53.194;5.728;2023-04-03T05:29:04;0.50;99.90
54642;DHT22;40536;53.194;5.728;2023-04-03T05:31:30;0.50;99.90
54642;DHT22;40536;53.194;5.728;2023-04-03T05:33:56;0.50;99.90
54642;DHT22;40536;53.194;5.728;2023-04-03T05:36:22;0.50;99.90
54642;DHT22;40536;53.194;5.728;2023-04-03T05:38:48;0.50;99.90
54642;DHT22;40536;53.194;5.728;2023-04-03T05:41:14;0.50;99.90
54642;DHT22;40536;53.194;5.728;2023-04-03T05:43:41;0.50;99.90
54642;DHT22;40536;53.194;5.728;2023-04-03T05:46:17;0.50;99.90
54642;DHT22;40536;53.194;5.728;2023-04-03T05:48:44;0.50;99.90
54642;DHT22;40536;53.194;5.728;2023-04-03T05:51:16;0.60;99.90
54642;DHT22;40536;53.194;5.728;2023-04-03T05:53:43;0.70;99.90
54642;DHT22;40536;53.194;5.728;2023-04-03T05:56:09;0.90;99.90
54642;DHT22;40536;53.194;5.728;2023-04-03T05:58:34;1.40;99.90
54642;DHT22;40536;53.194;5.728;2023-04-03T06:01:00;1.10;99.90
54642;DHT22;40536;53.194;5.728;2023-04-03T06:03:26;2.60;99.90
54642;DHT22;40536;53.194;5.728;2023-04-03T06:05:52;1.40;99.90
54642;DHT22;40536;53.194;5.728;2023-04-03T06:08:21;1.50;99.90
54642;DHT22;40536;53.194;5.728;2023-04-03T06:10:47;1.70;99.90
54642;DHT22;40536;53.194;5.728;2023-04-03T06:13:13;1.80;99.90
54642;DHT22;40536;53.194;5.728;2023-04-03T06:15:39;2.00;99.90
54642;DHT22;40536;53.194;5.728;2023-04-03T06:18:05;2.20;99.90
54642;DHT22;40536;53.194;5.728;2023-04-03T06:20:32;2.30;99.90
54642;DHT22;40536;53.194;5.728;2023-04-03T06:22:57;3.50;99.90
54642;DHT22;40536;53.194;5.728;2023-04-03T06:25:23;2.70;99.90
54642;DHT22;40536;53.194;5.728;2023-04-03T06:27:49;2.90;99.90
54642;DHT22;40536;53.194;5.728;2023-04-03T06:30:15;3.10;99.90
54642;DHT22;40536;53.194;5.728;2023-04-03T06:32:41;3.30;99.90
54642;DHT22;40536;53.194;5.728;2023-04-03T06:35:07;3.40;99.90
54642;DHT22;40536;53.194;5.728;2023-04-03T06:37:34;3.70;99.90
54642;DHT22;40536;53.194;5.728;2023-04-03T06:39:59;4.10;99.90
54642;DHT22;40536;53.194;5.728;2023-04-03T06:42:26;4.20;99.90
54642;DHT22;40536;53.194;5.728;2023-04-03T06:44:52;4.90;99.90
54642;DHT22;40536;53.194;5.728;2023-04-03T06:47:17;4.90;99.90
54642;DHT22;40536;53.194;5.728;2023-04-03T06:49:43;5.40;99.90
54642;DHT22;40536;53.194;5.728;2023-04-03T06:52:09;6.20;99.90
54642;DHT22;40536;53.194;5.728;2023-04-03T06:54:37;6.20;99.90
54642;DHT22;40536;53.194;5.728;2023-04-03T06:57:03;6.20;99.90
54642;DHT22;40536;53.194;5.728;2023-04-03T06:59:29;6.50;99.90
54642;DHT22;40536;53.194;5.728;2023-04-03T07:01:54;6.50;99.90
54642;DHT22;40536;53.194;5.728;2023-04-03T07:04:20;7.40;99.90
54642;DHT22;40536;53.194;5.728;2023-04-03T07:06:46;6.90;99.90
54642;DHT22;40536;53.194;5.728;2023-04-03T07:09:16;7.80;99.90
54642;DHT22;40536;53.194;5.728;2023-04-03T07:11:41;7.20;99.90
54642;DHT22;40536;53.194;5.728;2023-04-03T07:14:07;7.40;99.90
54642;DHT22;40536;53.194;5.728;2023-04-03T07:16:34;7.60;99.90
54642;DHT22;40536;53.194;5.728;2023-04-03T07:19:00;7.90;99.90
54642;DHT22;40536;53.194;5.728;2023-04-03T07:21:27;8.30;99.90
54642;DHT22;40536;53.194;5.728;2023-04-03T07:23:53;8.50;99.90
54642;DHT22;40536;53.194;5.728;2023-04-03T07:26:19;8.40;99.90
54642;DHT22;40536;53.194;5.728;2023-04-03T07:28:46;8.70;99.90
54642;DHT22;40536;53.194;5.728;2023-04-03T07:31:15;9.00;99.90
54642;DHT22;40536;53.194;5.728;2023-04-03T07:33:43;9.10;99.90
54642;DHT22;40536;53.194;5.728;2023-04-03T07:36:10;9.10;99.90
54642;DHT22;40536;53.194;5.728;2023-04-03T07:38:36;9.20;99.90
54642;DHT22;40536;53.194;5.728;2023-04-03T07:41:02;9.40;99.90
54642;DHT22;40536;53.194;5.728;2023-04-03T07:43:28;9.70;99.90
54642;DHT22;40536;53.194;5.728;2023-04-03T07:45:54;9.90;99.90
54642;DHT22;40536;53.194;5.728;2023-04-03T07:48:21;10.20;99.90
54642;DHT22;40536;53.194;5.728;2023-04-03T07:50:47;10.60;99.90
54642;DHT22;40536;53.194;5.728;2023-04-03T07:53:14;10.80;99.90
54642;DHT22;40536;53.194;5.728;2023-04-03T07:55:40;10.90;99.90
54642;DHT22;40536;53.194;5.728;2023-04-03T07:58:11;11.30;99.90
54642;DHT22;40536;53.194;5.728;2023-04-03T08:00:37;11.60;99.90
54642;DHT22;40536;53.194;5.728;2023-04-03T08:03:04;12.00;99.90
54642;DHT22;40536;53.194;5.728;2023-04-03T08:05:29;12.20;99.90
54642;DHT22;40536;53.194;5.728;2023-04-03T08:07:55;12.10;99.90
54642;DHT22;40536;53.194;5.728;2023-04-03T08:10:20;12.40;99.90
54642;DHT22;40536;53.194;5.728;2023-04-03T08:12:47;12.60;99.90
54642;DHT22;40536;53.194;5.728;2023-04-03T08:15:13;13.00;99.90
54642;DHT22;40536;53.194;5.728;2023-04-03T08:17:39;12.80;98.60
54642;DHT22;40536;53.194;5.728;2023-04-03T08:20:05;12.60;99.90
54642;DHT22;40536;53.194;5.728;2023-04-03T08:22:32;12.90;99.90
54642;DHT22;40536;53.194;5.728;2023-04-03T08:24:58;13.20;99.90
54642;DHT22;40536;53.194;5.728;2023-04-03T08:27:24;13.20;99.00
54642;DHT22;40536;53.194;5.728;2023-04-03T08:29:50;13.30;98.20
54642;DHT22;40536;53.194;5.728;2023-04-03T08:32:16;13.10;95.90
54642;DHT22;40536;53.194;5.728;2023-04-03T08:34:43;12.90;97.50
54642;DHT22;40536;53.194;5.728;2023-04-03T08:37:09;12.70;96.80
54642;DHT22;40536;53.194;5.728;2023-04-03T08:39:35;12.70;97.80
54642;DHT22;40536;53.194;5.728;2023-04-03T08:42:14;13.10;97.80
54642;DHT22;40536;53.194;5.728;2023-04-03T08:44:56;12.90;94.70
54642;DHT22;40536;53.194;5.728;2023-04-03T08:47:46;12.60;94.80
54642;DHT22;40536;53.194;5.728;2023-04-03T08:50:16;12.50;95.10
54642;DHT22;40536;53.194;5.728;2023-04-03T08:52:47;12.40;96.60
54642;DHT22;40536;53.194;5.728;2023-04-03T08:58:04;12.70;96.30
54642;DHT22;40536;53.194;5.728;2023-04-03T09:01:01;12.90;95.10
54642;DHT22;40536;53.194;5.728;2023-04-03T09:03:31;13.30;92.90
54642;DHT22;40536;53.194;5.728;2023-04-03T09:06:14;13.20;93.20
54642;DHT22;40536;53.194;5.728;2023-04-03T09:08:50;13.30;94.50
54642;DHT22;40536;53.194;5.728;2023-04-03T09:11:21;13.50;93.00
54642;DHT22;40536;53.194;5.728;2023-04-03T09:18:51;13.30;93.00
54642;DHT22;40536;53.194;5.728;2023-04-03T09:21:27;13.20;92.90
54642;DHT22;40536;53.194;5.728;2023-04-03T09:23:59;13.30;91.70
54642;DHT22;40536;53.194;5.728;2023-04-03T09:26:30;13.60;91.70
54642;DHT22;40536;53.194;5.728;2023-04-03T09:29:02;13.70;92.50
54642;DHT22;40536;53.194;5.728;2023-04-03T09:31:39;13.80;91.80
54642;DHT22;40536;53.194;5.728;2023-04-03T09:34:24;14.00;92.00
54642;DHT22;40536;53.194;5.728;2023-04-03T09:36:53;14.40;90.40
54642;DHT22;40536;53.194;5.728;2023-04-03T09:39:25;14.70;89.70
54642;DHT22;40536;53.194;5.728;2023-04-03T09:42:06;14.70;90.10
54642;DHT22;40536;53.194;5.728;2023-04-03T09:44:38;14.80;87.90
54642;DHT22;40536;53.194;5.728;2023-04-03T09:49:44;15.30;86.40
54642;DHT22;40536;53.194;5.728;2023-04-03T09:52:24;15.50;87.80
54642;DHT22;40536;53.194;5.728;2023-04-03T09:54:50;15.70;86.70
54642;DHT22;40536;53.194;5.728;2023-04-03T09:57:16;15.70;85.40
54642;DHT22;40536;53.194;5.728;2023-04-03T10:00:01;15.60;82.50
54642;DHT22;40536;53.194;5.728;2023-04-03T10:02:32;15.60;82.60
54642;DHT22;40536;53.194;5.728;2023-04-03T10:04:58;15.60;82.30
54642;DHT22;40536;53.194;5.728;2023-04-03T10:07:36;15.70;81.20
54642;DHT22;40536;53.194;5.728;2023-04-03T10:12:40;15.80;78.40
54642;DHT22;40536;53.194;5.728;2023-04-03T10:15:17;15.90;80.80
54642;DHT22;40536;53.194;5.728;2023-04-03T10:18:22;15.70;77.40
54642;DHT22;40536;53.194;5.728;2023-04-03T10:20:47;15.70;78.70
54642;DHT22;40536;53.194;5.728;2023-04-03T10:23:28;16.10;81.00
54642;DHT22;40536;53.194;5.728;2023-04-03T10:28:43;16.60;81.90
54642;DHT22;40536;53.194;5.728;2023-04-03T10:31:16;16.80;80.90
54642;DHT22;40536;53.194;5.728;2023-04-03T10:33:55;16.90;79.90
54642;DHT22;40536;53.194;5.728;2023-04-03T10:36:38;17.20;77.00
54642;DHT22;40536;53.194;5.728;2023-04-03T10:47:24;16.20;76.50
54642;DHT22;40536;53.194;5.728;2023-04-03T10:58:42;15.00;73.30
54642;DHT22;40536;53.194;5.728;2023-04-03T11:01:14;14.90;71.30
54642;DHT22;40536;53.194;5.728;2023-04-03T11:03:48;15.30;76.10
54642;DHT22;40536;53.194;5.728;2023-04-03T11:06:16;15.70;75.20
54642;DHT22;40536;53.194;5.728;2023-04-03T11:09:02;15.30;72.00
54642;DHT22;40536;53.194;5.728;2023-04-03T11:11:37;15.10;72.40
54642;DHT22;40536;53.194;5.728;2023-04-03T11:14:22;14.80;69.20
54642;DHT22;40536;53.194;5.728;2023-04-03T11:17:01;14.70;73.50
54642;DHT22;40536;53.194;5.728;2023-04-03T11:19:36;14.60;71.80
54642;DHT22;40536;53.194;5.728;2023-04-03T11:25:23;14.40;74.10
54642;DHT22;40536;53.194;5.728;2023-04-03T11:30:28;15.10;74.60
54642;DHT22;40536;53.194;5.728;2023-04-03T11:33:16;15.50;73.20
54642;DHT22;40536;53.194;5.728;2023-04-03T11:35:51;15.70;73.60
54642;DHT22;40536;53.194;5.728;2023-04-03T11:38:26;15.70;72.10
54642;DHT22;40536;53.194;5.728;2023-04-03T11:40:55;15.80;72.40
54642;DHT22;40536;53.194;5.728;2023-04-03T11:43:27;15.90;71.80
54642;DHT22;40536;53.194;5.728;2023-04-03T11:50:55;15.10;75.00
54642;DHT22;40536;53.194;5.728;2023-04-03T11:53:35;15.20;75.20
54642;DHT22;40536;53.194;5.728;2023-04-03T11:56:02;15.50;75.00
54642;DHT22;40536;53.194;5.728;2023-04-03T11:58:33;15.50;71.70
54642;DHT22;40536;53.194;5.728;2023-04-03T12:01:00;15.60;73.30
54642;DHT22;40536;53.194;5.728;2023-04-03T12:03:33;15.40;72.40
54642;DHT22;40536;53.194;5.728;2023-04-03T12:16:28;14.50;74.70
54642;DHT22;40536;53.194;5.728;2023-04-03T12:19:04;14.90;74.10
54642;DHT22;40536;53.194;5.728;2023-04-03T12:27:03;14.90;75.10
54642;DHT22;40536;53.194;5.728;2023-04-03T12:40:23;14.40;75.80
54642;DHT22;40536;53.194;5.728;2023-04-03T12:46:13;14.10;73.30
54642;DHT22;40536;53.194;5.728;2023-04-03T12:48:55;13.90;71.60
54642;DHT22;40536;53.194;5.728;2023-04-03T12:51:38;13.90;75.10
54642;DHT22;40536;53.194;5.728;2023-04-03T12:54:40;14.00;76.20
54642;DHT22;40536;53.194;5.728;2023-04-03T12:57:12;13.80;75.80
54642;DHT22;40536;53.194;5.728;2023-04-03T12:59:37;13.70;76.40
54642;DHT22;40536;53.194;5.728;2023-04-03T13:02:26;13.60;76.00
54642;DHT22;40536;53.194;5.728;2023-04-03T13:04:55;13.60;73.70
54642;DHT22;40536;53.194;5.728;2023-04-03T13:07:29;13.40;75.70
54642;DHT22;40536;53.194;5.728;2023-04-03T13:10:17;13.30;73.20
54642;DHT22;40536;53.194;5.728;2023-04-03T13:12:53;13.10;75.30
54642;DHT22;40536;53.194;5.728;2023-04-03T13:15:29;13.20;74.90
54642;DHT22;40536;53.194;5.728;2023-04-03T13:17:56;13.20;75.00
54642;DHT22;40536;53.194;5.728;2023-04-03T13:20:28;13.20;74.70
54642;DHT22;40536;53.194;5.728;2023-04-03T13:25:25;13.10;75.20
54642;DHT22;40536;53.194;5.728;2023-04-03T13:27:52;13.10;75.90
54642;DHT22;40536;53.194;5.728;2023-04-03T13:30:33;13.00;75.90
54642;DHT22;40536;53.194;5.728;2023-04-03T13:33:06;13.00;76.60
54642;DHT22;40536;53.194;5.728;2023-04-03T13:35:44;13.00;78.00
54642;DHT22;40536;53.194;5.728;2023-04-03T13:40:52;13.10;79.80
54642;DHT22;40536;53.194;5.728;2023-04-03T13:43:33;13.20;79.00
54642;DHT22;40536;53.194;5.728;2023-04-03T13:48:43;13.00;79.90
54642;DHT22;40536;53.194;5.728;2023-04-03T13:56:26;13.10;80.90
54642;DHT22;40536;53.194;5.728;2023-04-03T14:01:45;13.00;82.70
54642;DHT22;40536;53.194;5.728;2023-04-03T14:06:42;13.00;83.30
54642;DHT22;40536;53.194;5.728;2023-04-03T14:09:08;12.90;82.50
54642;DHT22;40536;53.194;5.728;2023-04-03T14:11:34;12.80;82.90
54642;DHT22;40536;53.194;5.728;2023-04-03T14:14:06;12.80;81.60
54642;DHT22;40536;53.194;5.728;2023-04-03T14:16:39;12.80;81.90
54642;DHT22;40536;53.194;5.728;2023-04-03T14:19:06;12.70;81.40
54642;DHT22;40536;53.194;5.728;2023-04-03T14:21:33;12.70;82.70
54642;DHT22;40536;53.194;5.728;2023-04-03T14:23:58;12.80;84.00
54642;DHT22;40536;53.194;5.728;2023-04-03T14:26:24;12.90;82.90
54642;DHT22;40536;53.194;5.728;2023-04-03T14:28:54;12.90;83.90
54642;DHT22;40536;53.194;5.728;2023-04-03T14:31:24;13.00;84.00
54642;DHT22;40536;53.194;5.728;2023-04-03T14:33:50;13.00;83.30
54642;DHT22;40536;53.194;5.728;2023-04-03T14:36:19;12.80;81.40
54642;DHT22;40536;53.194;5.728;2023-04-03T14:38:45;12.70;82.80
54642;DHT22;40536;53.194;5.728;2023-04-03T14:41:19;12.60;81.60
54642;DHT22;40536;53.194;5.728;2023-04-03T14:43:46;12.50;80.80
54642;DHT22;40536;53.194;5.728;2023-04-03T14:46:31;12.60;82.80
54642;DHT22;40536;53.194;5.728;2023-04-03T14:48:58;12.60;82.40
54642;DHT22;40536;53.194;5.728;2023-04-03T14:51:24;12.50;81.30
54642;DHT22;40536;53.194;5.728;2023-04-03T14:53:50;12.40;82.80
54642;DHT22;40536;53.194;5.728;2023-04-03T14:56:27;12.40;83.50
54642;DHT22;40536;53.194;5.728;2023-04-03T14:58:58;12.30;85.70
54642;DHT22;40536;53.194;5.728;2023-04-03T15:01:25;12.20;83.40
54642;DHT22;40536;53.194;5.728;2023-04-03T15:03:51;12.10;84.60
54642;DHT22;40536;53.194;5.728;2023-04-03T15:06:17;12.00;85.30
54642;DHT22;40536;53.194;5.728;2023-04-03T15:08:43;11.90;82.10
54642;DHT22;40536;53.194;5.728;2023-04-03T15:11:10;12.00;85.00
54642;DHT22;40536;53.194;5.728;2023-04-03T15:13:37;11.90;82.80
54642;DHT22;40536;53.194;5.728;2023-04-03T15:16:03;11.90;84.70
54642;DHT22;40536;53.194;5.728;2023-04-03T15:18:35;11.90;84.30
54642;DHT22;40536;53.194;5.728;2023-04-03T15:21:02;11.90;86.50
54642;DHT22;40536;53.194;5.728;2023-04-03T15:23:28;11.90;87.20
54642;DHT22;40536;53.194;5.728;2023-04-03T15:25:55;11.90;92.80
54642;DHT22;40536;53.194;5.728;2023-04-03T15:28:32;11.60;93.40
54642;DHT22;40536;53.194;5.728;2023-04-03T15:30:58;11.50;95.00
54642;DHT22;40536;53.194;5.728;2023-04-03T15:33:27;11.30;96.00
54642;DHT22;40536;53.194;5.728;2023-04-03T15:35:53;11.00;96.20
54642;DHT22;40536;53.194;5.728;2023-04-03T15:38:19;10.80;97.20
54642;DHT22;40536;53.194;5.728;2023-04-03T15:40:45;10.80;98.00
54642;DHT22;40536;53.194;5.728;2023-04-03T15:43:13;10.80;98.20
54642;DHT22;40536;53.194;5.728;2023-04-03T15:45:40;10.80;98.10
54642;DHT22;40536;53.194;5.728;2023-04-03T15:48:06;10.60;98.30
54642;DHT22;40536;53.194;5.728;2023-04-03T15:50:33;10.60;98.10
54642;DHT22;40536;53.194;5.728;2023-04-03T15:52:59;10.40;98.50
54642;DHT22;40536;53.194;5.728;2023-04-03T15:55:28;10.30;99.00
54642;DHT22;40536;53.194;5.728;2023-04-03T15:57:55;10.30;99.00
54642;DHT22;40536;53.194;5.728;2023-04-03T16:00:21;10.40;98.90
54642;DHT22;40536;53.194;5.728;2023-04-03T16:02:49;10.30;98.40
54642;DHT22;40536;53.194;5.728;2023-04-03T16:05:16;10.30;98.60
54642;DHT22;40536;53.194;5.728;2023-04-03T16:07:43;10.20;98.50
54642;DHT22;40536;53.194;5.728;2023-04-03T16:10:10;10.10;98.00
54642;DHT22;40536;53.194;5.728;2023-04-03T16:12:36;10.10;98.40
54642;DHT22;40536;53.194;5.728;2023-04-03T16:15:02;10.10;98.00
54642;DHT22;40536;53.194;5.728;2023-04-03T16:17:28;10.00;98.10
54642;DHT22;40536;53.194;5.728;2023-04-03T16:19:55;10.00;98.40
54642;DHT22;40536;53.194;5.728;2023-04-03T16:22:22;10.00;97.80
54642;DHT22;40536;53.194;5.728;2023-04-03T16:24:49;9.90;98.00
54642;DHT22;40536;53.194;5.728;2023-04-03T16:27:15;9.80;97.80
54642;DHT22;40536;53.194;5.728;2023-04-03T16:29:41;9.80;97.90
54642;DHT22;40536;53.194;5.728;2023-04-03T16:32:07;9.70;98.40
54642;DHT22;40536;53.194;5.728;2023-04-03T16:34:32;9.60;97.60
54642;DHT22;40536;53.194;5.728;2023-04-03T16:36:59;9.60;98.00
54642;DHT22;40536;53.194;5.728;2023-04-03T16:39:25;9.60;99.00
54642;DHT22;40536;53.194;5.728;2023-04-03T16:41:51;9.60;98.80
54642;DHT22;40536;53.194;5.728;2023-04-03T16:44:16;9.50;98.40
54642;DHT22;40536;53.194;5.728;2023-04-03T16:46:42;9.50;98.90
54642;DHT22;40536;53.194;5.728;2023-04-03T16:49:08;9.40;98.90
54642;DHT22;40536;53.194;5.728;2023-04-03T16:51:34;9.30;99.10
54642;DHT22;40536;53.194;5.728;2023-04-03T16:54:00;9.30;99.50
54642;DHT22;40536;53.194;5.728;2023-04-03T16:56:25;9.10;99.70
54642;DHT22;40536;53.194;5.728;2023-04-03T16:58:54;9.10;99.90
54642;DHT22;40536;53.194;5.728;2023-04-03T17:01:21;9.00;99.90
54642;DHT22;40536;53.194;5.728;2023-04-03T17:03:47;9.00;99.90
54642;DHT22;40536;53.194;5.728;2023-04-03T17:06:18;8.70;99.90
54642;DHT22;40536;53.194;5.728;2023-04-03T17:08:46;8.60;99.90
54642;DHT22;40536;53.194;5.728;2023-04-03T17:11:13;8.50;99.90
54642;DHT22;40536;53.194;5.728;2023-04-03T17:13:39;8.50;99.90
54642;DHT22;40536;53.194;5.728;2023-04-03T17:16:07;8.50;99.90
54642;DHT22;40536;53.194;5.728;2023-04-03T17:18:34;8.60;99.90
54642;DHT22;40536;53.194;5.728;2023-04-03T17:21:01;8.40;99.90
54642;DHT22;40536;53.194;5.728;2023-04-03T17:23:28;8.30;99.90
54642;DHT22;40536;53.194;5.728;2023-04-03T17:25:54;8.50;99.90
54642;DHT22;40536;53.194;5.728;2023-04-03T17:28:21;8.10;99.90